Time;durP1;ratioP1;P1;durP2;ratioP2;P2;SDS_P1;SDS_P2;PMS_P1;PMS_P2;Temp;Humidity;BMP_temperature;BMP_pressure;BME280_temperature;BME280_humidity;BME280_pressure;Samples;Min_cycle;Max_cycle;Signal;HPM_P1;HPM_P2
2023/12/27 00:01:48;;;;;;;2.43;1.10;;;22.30;69.10;;;;;;5035268;28;20454;-89
2023/12/27 00:04:15;;;;;;;2.03;1.20;;;22.30;69.10;;;;;;5034755;28;20458;-89
2023/12/27 00:06:42;;;;;;;1.60;1.20;;;22.20;68.90;;;;;;5035456;28;20533;-89
2023/12/27 00:09:09;;;;;;;1.43;1.30;;;22.20;69.00;;;;;;5035170;28;20453;-89
2023/12/27 00:11:36;;;;;;;1.50;1.10;;;22.20;69.00;;;;;;5035141;28;20795;-89
2023/12/27 00:14:02;;;;;;;1.77;1.07;;;22.20;68.90;;;;;;5034975;28;20438;-89
2023/12/27 00:16:31;;;;;;;1.83;1.03;;;22.20;68.90;;;;;;5035248;28;20441;-89
2023/12/27 00:18:58;;;;;;;1.97;1.40;;;22.20;68.90;;;;;;5035182;28;20494;-93
2023/12/27 00:21:24;;;;;;;1.77;1.40;;;22.30;69.10;;;;;;5035255;28;20945;-89
2023/12/27 00:23:51;;;;;;;1.50;1.10;;;22.20;68.90;;;;;;5035091;28;20442;-90
2023/12/27 00:26:18;;;;;;;1.40;0.90;;;22.20;69.00;;;;;;5034553;28;20478;-89
2023/12/27 00:28:45;;;;;;;1.70;1.30;;;22.20;69.00;;;;;;5035080;28;20443;-89
2023/12/27 00:31:11;;;;;;;1.93;1.40;;;22.20;69.00;;;;;;5035100;28;20439;-89
2023/12/27 00:33:39;;;;;;;1.57;1.10;;;22.20;69.00;;;;;;5035045;28;20545;-89
2023/12/27 00:36:06;;;;;;;1.70;1.17;;;22.20;69.00;;;;;;5034635;28;20302;-94
2023/12/27 00:38:33;;;;;;;2.83;1.20;;;22.20;69.00;;;;;;5034522;28;20526;-89
2023/12/27 00:41:01;;;;;;;1.80;1.20;;;22.10;69.60;;;;;;5034797;28;20442;-93
2023/12/27 00:43:27;;;;;;;1.73;1.20;;;22.10;68.80;;;;;;5034761;28;20505;-89
2023/12/27 00:45:54;;;;;;;1.70;1.30;;;22.10;68.70;;;;;;5034461;28;20430;-89
2023/12/27 00:48:21;;;;;;;1.67;1.20;;;22.10;68.80;;;;;;5034647;28;20918;-89
2023/12/27 00:50:49;;;;;;;1.50;1.13;;;22.10;68.80;;;;;;5034637;28;20446;-96
2023/12/27 00:53:16;;;;;;;1.40;1.20;;;22.20;68.90;;;;;;5034276;28;20442;-89
2023/12/27 00:55:43;;;;;;;1.60;1.20;;;22.10;68.80;;;;;;5034062;28;20442;-89
2023/12/27 00:58:10;;;;;;;2.33;1.50;;;22.10;68.80;;;;;;5034619;28;20504;-89
2023/12/27 01:00:37;;;;;;;1.77;1.30;;;22.20;69.00;;;;;;5034472;28;20438;-88
2023/12/27 01:03:04;;;;;;;1.60;1.23;;;22.10;68.80;;;;;;5034429;28;20464;-89
2023/12/27 01:05:30;;;;;;;1.47;1.17;;;22.10;68.80;;;;;;5034172;28;20473;-88
2023/12/27 01:07:59;;;;;;;1.83;1.20;;;22.10;68.80;;;;;;5034209;28;20446;-93
2023/12/27 01:10:25;;;;;;;1.50;1.20;;;22.10;68.80;;;;;;5033684;28;20472;-88
2023/12/27 01:12:52;;;;;;;1.40;1.00;;;22.00;68.70;;;;;;5034330;28;20448;-90
2023/12/27 01:15:19;;;;;;;1.70;1.43;;;22.00;68.70;;;;;;5034071;28;20815;-88
2023/12/27 01:17:46;;;;;;;1.50;1.00;;;22.00;68.70;;;;;;5033582;28;20485;-88
2023/12/27 01:20:13;;;;;;;1.60;1.13;;;22.00;68.80;;;;;;5033947;28;20933;-88
2023/12/27 01:22:39;;;;;;;1.60;1.10;;;22.10;68.80;;;;;;5033932;28;20807;-88
2023/12/27 01:25:09;;;;;;;1.30;1.00;;;22.00;68.70;;;;;;5033997;28;20434;-92
2023/12/27 01:27:35;;;;;;;2.33;1.50;;;22.00;68.70;;;;;;5033417;28;20485;-87
2023/12/27 01:30:03;;;;;;;1.83;1.10;;;22.00;68.70;;;;;;5034047;28;20443;-89
2023/12/27 01:32:30;;;;;;;1.70;1.10;;;22.00;68.70;;;;;;5033873;28;20485;-88
2023/12/27 01:34:56;;;;;;;1.63;1.03;;;22.00;68.70;;;;;;5033732;28;20466;-94
2023/12/27 01:37:23;;;;;;;1.50;1.30;;;22.00;68.70;;;;;;5033397;28;20468;-87
2023/12/27 01:39:50;;;;;;;1.87;1.60;;;22.10;68.70;;;;;;5033672;28;20438;-87
2023/12/27 01:42:18;;;;;;;1.47;1.17;;;22.00;68.60;;;;;;5033462;28;20461;-88
2023/12/27 01:44:45;;;;;;;2.07;1.23;;;22.00;68.70;;;;;;5033467;28;20442;-89
2023/12/27 01:47:13;;;;;;;1.87;1.33;;;22.00;68.70;;;;;;5033649;28;20445;-91
2023/12/27 01:49:40;;;;;;;1.93;1.20;;;22.00;68.60;;;;;;5033528;28;20794;-88
2023/12/27 01:52:09;;;;;;;1.50;1.10;;;22.00;68.60;;;;;;5033586;28;20448;-88
2023/12/27 01:54:36;;;;;;;1.63;1.50;;;22.00;68.60;;;;;;5033408;28;20442;-88
2023/12/27 01:57:03;;;;;;;2.00;1.47;;;21.90;68.60;;;;;;5033369;28;20879;-89
2023/12/27 01:59:31;;;;;;;1.50;1.20;;;21.90;68.50;;;;;;5033175;28;21000;-88
2023/12/27 02:01:59;;;;;;;2.53;1.17;;;21.90;68.50;;;;;;5033547;28;20434;-88
2023/12/27 02:04:25;;;;;;;1.40;1.10;;;21.90;68.60;;;;;;5033296;28;20488;-87
2023/12/27 02:06:53;;;;;;;1.40;1.00;;;21.90;68.60;;;;;;5033439;28;20442;-88
2023/12/27 02:09:20;;;;;;;1.60;1.10;;;21.90;68.60;;;;;;5033293;28;20446;-88
2023/12/27 02:11:47;;;;;;;1.60;1.20;;;21.90;68.70;;;;;;5033330;28;20460;-88
2023/12/27 02:14:14;;;;;;;2.20;1.27;;;21.90;68.60;;;;;;5033287;28;20445;-88
2023/12/27 02:16:43;;;;;;;1.50;1.13;;;21.90;68.60;;;;;;5033289;28;20533;-89
2023/12/27 02:19:16;;;;;;;1.60;1.30;;;21.90;68.60;;;;;;5033349;28;20485;-88
2023/12/27 02:21:43;;;;;;;1.37;0.90;;;21.90;68.50;;;;;;5036555;28;20430;-88
2023/12/27 02:24:15;;;;;;;1.97;1.00;;;21.90;68.40;;;;;;5037273;28;20433;-91
2023/12/27 02:26:43;;;;;;;2.03;1.03;;;21.90;68.30;;;;;;5036871;28;20470;-88
2023/12/27 02:29:10;;;;;;;1.40;0.97;;;21.90;68.40;;;;;;5037016;28;20433;-92
2023/12/27 02:31:37;;;;;;;1.50;1.00;;;22.10;68.50;;;;;;5036913;28;20440;-94
2023/12/27 02:34:04;;;;;;;1.30;1.00;;;21.90;68.20;;;;;;5037206;28;20462;-91
2023/12/27 02:36:31;;;;;;;1.43;1.07;;;22.00;68.40;;;;;;5036952;28;20438;-88
2023/12/27 02:38:58;;;;;;;1.60;1.00;;;21.90;68.20;;;;;;5036654;28;21019;-91
2023/12/27 02:41:24;;;;;;;1.60;1.10;;;22.10;68.40;;;;;;5037470;28;20937;-93
2023/12/27 02:43:53;;;;;;;1.70;1.20;;;22.00;68.30;;;;;;5036971;28;20435;-88
2023/12/27 02:46:19;;;;;;;1.50;1.10;;;22.00;68.30;;;;;;5036520;28;20438;-88
2023/12/27 02:48:46;;;;;;;1.67;1.30;;;22.00;68.30;;;;;;5036728;28;20434;-87
2023/12/27 02:51:13;;;;;;;1.40;1.20;;;22.00;68.20;;;;;;5036787;28;20442;-88
2023/12/27 02:53:40;;;;;;;1.40;1.27;;;22.00;68.20;;;;;;5037493;28;20441;-93
2023/12/27 02:56:09;;;;;;;1.40;1.00;;;22.00;68.10;;;;;;5036775;28;20533;-88
2023/12/27 02:58:38;;;;;;;2.03;1.20;;;22.00;68.10;;;;;;5036589;28;20486;-87
2023/12/27 03:01:06;;;;;;;1.50;1.30;;;22.10;68.20;;;;;;5036635;28;20438;-89
2023/12/27 03:03:33;;;;;;;1.70;1.40;;;22.00;68.10;;;;;;5036666;28;20820;-87
2023/12/27 03:06:00;;;;;;;1.67;1.17;;;22.00;68.10;;;;;;5036579;28;20450;-88
2023/12/27 03:08:27;;;;;;;1.87;1.27;;;22.00;68.10;;;;;;5036227;28;20516;-88
2023/12/27 03:10:55;;;;;;;1.30;1.10;;;22.00;68.00;;;;;;5036414;28;20438;-87
2023/12/27 03:13:22;;;;;;;4.33;1.20;;;22.00;68.00;;;;;;5036510;28;20445;-87
2023/12/27 03:15:49;;;;;;;1.60;1.10;;;22.00;68.00;;;;;;5036374;28;20526;-87
2023/12/27 03:18:17;;;;;;;1.40;1.10;;;22.00;68.00;;;;;;5035927;28;20517;-87
2023/12/27 03:20:44;;;;;;;2.03;1.37;;;22.00;68.00;;;;;;5036280;28;20445;-88
2023/12/27 03:23:11;;;;;;;1.90;1.40;;;22.00;67.90;;;;;;5036076;28;20445;-88
2023/12/27 03:25:37;;;;;;;2.50;1.27;;;22.00;67.90;;;;;;5035904;28;20442;-89
2023/12/27 03:28:04;;;;;;;1.37;1.10;;;22.00;67.90;;;;;;5035658;28;20466;-88
2023/12/27 03:30:31;;;;;;;1.50;1.20;;;22.00;67.90;;;;;;5036105;28;20441;-88
2023/12/27 03:32:58;;;;;;;1.30;1.10;;;22.00;67.80;;;;;;5035563;28;20921;-88
2023/12/27 03:35:26;;;;;;;2.00;1.17;;;22.00;67.80;;;;;;5035857;28;20486;-92
2023/12/27 03:37:55;;;;;;;1.40;1.27;;;22.00;68.70;;;;;;5036068;28;20438;-88
2023/12/27 03:40:21;;;;;;;2.03;1.20;;;22.00;67.70;;;;;;5035874;28;20441;-88
2023/12/27 03:42:48;;;;;;;1.60;1.30;;;22.00;67.70;;;;;;5035620;28;20430;-93
2023/12/27 03:45:17;;;;;;;1.50;1.13;;;22.00;67.70;;;;;;5035625;28;20782;-88
2023/12/27 03:47:44;;;;;;;1.43;1.10;;;22.00;67.70;;;;;;5035830;28;20496;-88
2023/12/27 03:50:11;;;;;;;1.90;1.47;;;22.00;67.60;;;;;;5035566;28;20446;-93
2023/12/27 03:52:39;;;;;;;1.60;1.10;;;22.00;67.70;;;;;;5035613;28;20925;-89
2023/12/27 03:55:08;;;;;;;1.50;1.13;;;22.10;67.80;;;;;;5035780;28;20438;-88
2023/12/27 03:57:35;;;;;;;1.90;1.10;;;22.00;67.70;;;;;;5035939;28;20886;-88
2023/12/27 04:00:01;;;;;;;1.60;1.40;;;22.00;67.60;;;;;;5035584;28;20489;-88
2023/12/27 04:02:28;;;;;;;1.80;1.03;;;22.10;67.80;;;;;;5035610;28;20542;-89
2023/12/27 04:04:55;;;;;;;1.70;1.30;;;22.00;67.60;;;;;;5035282;28;20470;-90
2023/12/27 04:07:22;;;;;;;1.80;1.07;;;22.00;67.60;;;;;;5035349;28;20451;-87
2023/12/27 04:09:50;;;;;;;1.50;1.10;;;22.00;67.60;;;;;;5035455;28;20506;-88
2023/12/27 04:12:17;;;;;;;2.73;1.73;;;22.00;67.60;;;;;;5035298;28;20456;-94
2023/12/27 04:14:43;;;;;;;1.57;1.13;;;22.00;67.50;;;;;;5035079;28;20438;-87
2023/12/27 04:17:11;;;;;;;1.80;1.30;;;22.00;67.50;;;;;;5035203;28;20438;-92
2023/12/27 04:19:37;;;;;;;1.90;1.40;;;22.00;67.60;;;;;;5036045;28;20482;-88
2023/12/27 04:22:04;;;;;;;1.30;1.03;;;22.00;67.50;;;;;;5034874;28;20442;-89
2023/12/27 04:24:31;;;;;;;1.47;1.30;;;22.00;67.50;;;;;;5034736;28;20464;-87
2023/12/27 04:26:58;;;;;;;1.40;1.10;;;22.00;67.50;;;;;;5034528;28;20482;-87
2023/12/27 04:29:25;;;;;;;2.13;1.10;;;22.00;67.40;;;;;;5034473;28;20464;-87
2023/12/27 04:31:52;;;;;;;1.50;1.17;;;22.00;67.40;;;;;;5034313;28;20442;-87
2023/12/27 04:34:19;;;;;;;1.33;0.90;;;22.00;67.50;;;;;;5034289;28;20833;-88
2023/12/27 04:36:46;;;;;;;1.70;0.90;;;22.00;67.40;;;;;;5034180;28;21145;-87
2023/12/27 04:39:12;;;;;;;1.83;1.20;;;22.00;67.40;;;;;;5034423;28;20493;-87
2023/12/27 04:41:40;;;;;;;2.13;1.20;;;22.00;67.40;;;;;;5034425;28;20537;-88
2023/12/27 04:44:08;;;;;;;2.47;1.63;;;22.00;67.40;;;;;;5033726;28;20434;-88
2023/12/27 04:46:36;;;;;;;1.40;1.20;;;22.00;67.40;;;;;;5034755;28;21176;-87
2023/12/27 04:49:03;;;;;;;2.63;1.27;;;22.00;67.40;;;;;;5034520;28;20434;-94
2023/12/27 04:51:30;;;;;;;1.40;1.10;;;22.00;67.40;;;;;;5034396;28;20799;-87
2023/12/27 04:53:57;;;;;;;1.77;1.10;;;22.00;67.30;;;;;;5034551;28;20438;-88
2023/12/27 04:56:24;;;;;;;2.03;1.10;;;22.10;67.40;;;;;;5034245;28;20438;-87
2023/12/27 04:58:51;;;;;;;1.80;1.00;;;22.00;67.30;;;;;;5034515;28;20493;-88
2023/12/27 05:01:19;;;;;;;2.23;1.37;;;22.00;67.30;;;;;;5034181;28;20473;-88
2023/12/27 05:03:46;;;;;;;2.00;1.30;;;22.00;67.20;;;;;;5034259;28;20438;-88
2023/12/27 05:06:25;;;;;;;2.33;1.20;;;22.10;67.30;;;;;;5111466;27;20524;-89
2023/12/27 05:08:52;;;;;;;1.60;1.10;;;22.00;67.10;;;;;;5111194;28;20526;-89
2023/12/27 05:11:21;;;;;;;1.60;1.20;;;22.10;67.20;;;;;;5111427;28;20806;-89
2023/12/27 05:13:48;;;;;;;1.40;1.10;;;22.10;67.30;;;;;;5111161;28;20478;-90
2023/12/27 05:16:16;;;;;;;1.47;1.17;;;22.10;67.20;;;;;;5111210;28;20441;-89
2023/12/27 05:18:45;;;;;;;1.60;1.00;;;22.00;67.10;;;;;;5111151;28;20439;-90
2023/12/27 05:21:14;;;;;;;1.87;1.30;;;22.10;67.10;;;;;;5111503;28;20474;-89
2023/12/27 05:23:42;;;;;;;1.80;1.17;;;22.10;67.10;;;;;;5111198;28;20441;-90
2023/12/27 05:26:08;;;;;;;1.40;1.10;;;22.10;67.10;;;;;;5111049;28;20487;-92
2023/12/27 05:28:35;;;;;;;2.20;1.10;;;22.10;67.00;;;;;;5111180;28;20438;-89
2023/12/27 05:31:02;;;;;;;1.93;1.23;;;22.10;66.90;;;;;;5110901;28;20529;-89
2023/12/27 05:33:29;;;;;;;1.50;1.30;;;22.10;66.80;;;;;;5110945;28;20431;-89
2023/12/27 05:35:57;;;;;;;1.43;1.00;;;22.10;66.80;;;;;;5111115;28;20447;-89
2023/12/27 05:38:23;;;;;;;1.67;1.30;;;22.10;66.90;;;;;;5111031;28;20435;-90
2023/12/27 05:40:51;;;;;;;1.50;1.10;;;22.10;67.30;;;;;;5110693;28;20443;-94
2023/12/27 05:43:18;;;;;;;1.50;1.00;;;22.20;66.90;;;;;;5110890;28;20781;-89
2023/12/27 05:45:45;;;;;;;1.67;1.20;;;22.20;66.90;;;;;;5110529;28;20486;-90
2023/12/27 05:48:13;;;;;;;1.83;1.07;;;22.20;66.80;;;;;;5110637;28;20431;-90
2023/12/27 05:50:39;;;;;;;1.50;1.10;;;22.20;66.80;;;;;;5108310;28;20949;-89
2023/12/27 05:53:06;;;;;;;1.40;1.00;;;22.20;66.70;;;;;;5110469;28;20439;-90
2023/12/27 05:55:33;;;;;;;1.60;1.30;;;22.30;66.80;;;;;;5110655;28;20446;-89
2023/12/27 05:58:01;;;;;;;2.03;1.20;;;22.20;66.70;;;;;;5110177;28;20438;-89
2023/12/27 06:00:28;;;;;;;1.30;1.07;;;22.20;66.70;;;;;;5110414;28;20518;-89
2023/12/27 06:02:55;;;;;;;1.30;0.90;;;22.20;66.70;;;;;;5110256;28;20439;-89
2023/12/27 06:05:22;;;;;;;1.93;1.13;;;22.20;66.80;;;;;;5109803;28;20536;-89
2023/12/27 06:07:49;;;;;;;1.40;1.00;;;22.20;66.70;;;;;;5110344;28;20442;-90
2023/12/27 06:10:16;;;;;;;3.30;1.73;;;22.20;66.60;;;;;;5110136;28;20927;-89
2023/12/27 06:12:43;;;;;;;1.40;1.10;;;22.20;66.60;;;;;;5110259;28;20435;-96
2023/12/27 06:15:11;;;;;;;1.40;1.00;;;22.20;66.60;;;;;;5109909;28;20435;-89
2023/12/27 06:17:38;;;;;;;2.30;1.33;;;22.20;66.50;;;;;;5096838;28;20442;-89
2023/12/27 06:20:06;;;;;;;1.60;1.23;;;22.20;66.50;;;;;;5096576;28;20446;-90
2023/12/27 06:22:33;;;;;;;1.30;1.07;;;22.20;66.50;;;;;;5096303;28;20432;-89
2023/12/27 06:25:00;;;;;;;1.40;1.03;;;22.20;66.50;;;;;;5096326;28;20487;-89
2023/12/27 06:27:27;;;;;;;1.40;1.00;;;22.20;66.50;;;;;;5096392;28;20435;-89
2023/12/27 06:29:54;;;;;;;1.87;1.40;;;22.20;66.40;;;;;;5096454;28;20537;-89
2023/12/27 06:32:23;;;;;;;1.30;1.00;;;22.20;66.50;;;;;;5096405;28;20836;-89
2023/12/27 06:34:49;;;;;;;1.70;1.40;;;22.20;66.40;;;;;;5096201;28;20456;-89
2023/12/27 06:37:16;;;;;;;1.60;1.30;;;22.30;66.50;;;;;;5095978;28;20465;-90
2023/12/27 06:39:43;;;;;;;1.60;1.00;;;22.20;66.40;;;;;;5096001;28;20801;-89
2023/12/27 06:42:10;;;;;;;1.70;1.20;;;22.20;66.30;;;;;;5096096;28;20438;-90
2023/12/27 06:44:37;;;;;;;2.00;1.07;;;22.30;66.50;;;;;;5094518;28;20458;-89
2023/12/27 06:47:04;;;;;;;1.20;0.90;;;22.30;66.50;;;;;;5075931;28;20432;-89
2023/12/27 06:49:32;;;;;;;1.50;1.00;;;22.30;66.40;;;;;;5075736;28;20927;-89
2023/12/27 06:51:59;;;;;;;1.40;1.10;;;22.30;66.40;;;;;;5075773;28;20436;-89
2023/12/27 06:54:25;;;;;;;1.40;1.00;;;22.40;66.50;;;;;;5075728;28;20432;-90
2023/12/27 06:56:52;;;;;;;1.93;1.23;;;22.30;66.40;;;;;;5075428;28;20999;-89
2023/12/27 06:59:19;;;;;;;1.90;1.23;;;22.30;66.40;;;;;;5090419;28;20530;-89
2023/12/27 07:01:46;;;;;;;1.60;1.10;;;22.30;66.30;;;;;;5095820;28;20432;-89
2023/12/27 07:04:13;;;;;;;2.40;1.17;;;22.40;66.50;;;;;;5095417;28;20458;-90
2023/12/27 07:06:41;;;;;;;1.40;1.20;;;22.30;66.30;;;;;;5095626;28;21287;-89
2023/12/27 07:09:09;;;;;;;1.50;1.10;;;22.30;66.30;;;;;;5095620;28;20444;-89
2023/12/27 07:11:36;;;;;;;1.60;0.77;;;22.40;66.40;;;;;;5095510;28;20522;-89
2023/12/27 07:14:03;;;;;;;1.30;1.10;;;22.30;67.10;;;;;;5095288;28;20447;-89
2023/12/27 07:16:30;;;;;;;1.47;1.13;;;22.30;66.20;;;;;;5095214;28;20433;-95
2023/12/27 07:18:56;;;;;;;1.30;1.20;;;22.30;66.20;;;;;;5095442;28;20539;-96
2023/12/27 07:21:23;;;;;;;1.60;1.17;;;22.30;66.20;;;;;;5095419;28;20440;-89
2023/12/27 07:23:51;;;;;;;1.30;1.00;;;22.30;66.10;;;;;;5095344;28;20952;-89
2023/12/27 07:26:18;;;;;;;1.53;1.07;;;22.30;66.10;;;;;;5094988;28;20483;-89
2023/12/27 07:28:45;;;;;;;1.40;1.20;;;22.30;66.10;;;;;;5094276;28;20448;-96
2023/12/27 07:31:12;;;;;;;1.93;1.10;;;22.30;66.00;;;;;;5095582;28;20440;-90
2023/12/27 07:33:39;;;;;;;1.33;0.90;;;22.30;66.10;;;;;;5094998;28;20443;-96
2023/12/27 07:36:08;;;;;;;1.20;0.90;;;22.30;66.20;;;;;;5082185;28;20947;-89
2023/12/27 07:38:35;;;;;;;1.90;1.23;;;22.30;66.10;;;;;;5074966;28;20493;-89
2023/12/27 07:41:04;;;;;;;1.80;1.17;;;22.30;66.20;;;;;;5074802;28;20447;-89
2023/12/27 07:43:31;;;;;;;1.47;1.20;;;22.30;66.20;;;;;;5074921;28;20570;-90
2023/12/27 07:45:58;;;;;;;1.30;1.07;;;22.20;66.10;;;;;;5074516;28;20571;-90
2023/12/27 07:48:25;;;;;;;1.10;0.80;;;22.20;66.10;;;;;;5074788;28;20444;-89
2023/12/27 07:50:52;;;;;;;1.80;0.83;;;22.30;66.20;;;;;;5074525;28;20440;-96
2023/12/27 07:53:19;;;;;;;1.67;1.10;;;22.30;66.20;;;;;;5074161;28;20448;-89
2023/12/27 07:55:45;;;;;;;2.17;0.97;;;22.30;66.30;;;;;;5082256;28;20889;-90
2023/12/27 07:58:14;;;;;;;2.27;1.73;;;22.30;66.40;;;;;;5084221;28;20527;-96
2023/12/27 08:00:40;;;;;;;1.40;0.97;;;22.30;66.50;;;;;;5075228;28;20442;-96
2023/12/27 08:03:09;;;;;;;1.40;1.00;;;22.30;66.60;;;;;;5075958;28;20436;-89
2023/12/27 08:05:36;;;;;;;1.47;1.10;;;22.30;66.60;;;;;;5074130;28;20489;-89
2023/12/27 08:08:03;;;;;;;2.57;1.43;;;22.30;66.70;;;;;;5074724;28;20501;-89
2023/12/27 08:10:31;;;;;;;2.90;1.00;;;22.30;66.70;;;;;;5074613;28;20452;-89
2023/12/27 08:12:57;;;;;;;1.73;1.00;;;22.40;66.80;;;;;;5074768;28;20448;-89
2023/12/27 08:15:25;;;;;;;1.73;0.80;;;22.30;66.60;;;;;;5073932;28;20440;-90
2023/12/27 08:17:52;;;;;;;1.20;0.90;;;22.30;66.60;;;;;;5073822;28;20543;-90
2023/12/27 08:20:19;;;;;;;1.37;1.10;;;22.30;66.60;;;;;;5073878;28;20543;-89
2023/12/27 08:22:46;;;;;;;1.37;0.97;;;22.30;66.60;;;;;;5073731;28;20444;-89
2023/12/27 08:25:15;;;;;;;1.50;1.10;;;22.30;66.70;;;;;;5074002;28;20446;-89
2023/12/27 08:27:42;;;;;;;2.10;1.10;;;22.30;66.60;;;;;;5073729;28;20448;-89
2023/12/27 08:30:10;;;;;;;2.90;1.20;;;22.30;66.60;;;;;;5073829;28;20448;-89
2023/12/27 08:32:39;;;;;;;1.50;1.10;;;22.30;66.70;;;;;;5073258;28;20938;-89
2023/12/27 08:35:06;;;;;;;2.20;0.90;;;22.40;66.90;;;;;;5090080;28;20471;-90
2023/12/27 08:37:33;;;;;;;1.60;1.40;;;22.30;66.80;;;;;;5093640;28;20454;-89
2023/12/27 08:40:00;;;;;;;2.00;1.13;;;22.30;66.60;;;;;;5093331;28;20526;-89
2023/12/27 08:42:27;;;;;;;1.90;1.20;;;22.40;66.90;;;;;;5093742;28;20443;-89
2023/12/27 08:44:53;;;;;;;1.50;1.10;;;22.30;67.00;;;;;;5093956;28;20492;-89
2023/12/27 08:47:20;;;;;;;1.63;1.20;;;22.30;67.00;;;;;;5093605;28;20566;-89
2023/12/27 08:49:50;;;;;;;2.00;1.20;;;22.30;66.60;;;;;;5093884;28;20505;-90
2023/12/27 08:52:17;;;;;;;1.87;1.20;;;22.30;66.90;;;;;;5093950;28;20448;-89
2023/12/27 08:54:43;;;;;;;1.57;1.20;;;22.30;66.90;;;;;;5093855;28;20436;-89
2023/12/27 08:57:10;;;;;;;1.50;1.13;;;22.30;67.00;;;;;;5094039;28;20443;-90
2023/12/27 08:59:37;;;;;;;2.47;1.50;;;22.30;67.00;;;;;;5093733;28;20442;-89
2023/12/27 09:02:04;;;;;;;1.80;1.30;;;22.30;67.00;;;;;;5093892;28;20438;-89
2023/12/27 09:04:32;;;;;;;1.40;1.23;;;22.30;67.00;;;;;;5093459;28;20479;-89
2023/12/27 09:07:00;;;;;;;1.97;1.10;;;22.30;66.90;;;;;;5093682;28;20471;-89
2023/12/27 09:09:27;;;;;;;2.27;1.23;;;22.30;66.90;;;;;;5093654;28;20493;-89
2023/12/27 09:11:54;;;;;;;1.50;1.20;;;22.40;66.90;;;;;;5093846;28;20926;-91
2023/12/27 09:14:21;;;;;;;1.50;1.20;;;22.30;66.70;;;;;;5093417;28;20444;-89
2023/12/27 09:16:47;;;;;;;2.00;1.20;;;22.40;67.00;;;;;;5093469;28;20531;-89
2023/12/27 09:19:15;;;;;;;3.40;1.27;;;22.40;67.00;;;;;;5080497;28;20452;-90
2023/12/27 09:21:45;;;;;;;2.53;1.40;;;22.30;66.80;;;;;;5073312;28;20440;-89
2023/12/27 09:24:14;;;;;;;5.03;1.33;;;22.40;67.00;;;;;;5073243;28;20527;-90
2023/12/27 09:26:41;;;;;;;2.23;1.10;;;22.40;67.00;;;;;;5073773;28;20506;-88
2023/12/27 09:29:09;;;;;;;1.50;1.23;;;22.40;67.00;;;;;;5080106;28;20446;-87
2023/12/27 09:31:36;;;;;;;3.63;1.80;;;22.40;67.00;;;;;;5090474;28;20443;-88
2023/12/27 09:34:03;;;;;;;2.90;1.50;;;22.40;67.10;;;;;;5077648;28;20476;-92
2023/12/27 09:36:29;;;;;;;2.33;1.40;;;22.40;67.10;;;;;;5073256;28;20440;-91
2023/12/27 09:38:56;;;;;;;1.90;1.20;;;22.40;67.10;;;;;;5080339;28;20448;-94
2023/12/27 09:41:24;;;;;;;2.20;1.43;;;22.40;67.10;;;;;;5072903;28;20928;-91
2023/12/27 09:43:53;;;;;;;2.60;1.30;;;22.50;67.20;;;;;;5072806;28;20444;-91
2023/12/27 09:46:21;;;;;;;3.33;2.10;;;22.40;67.10;;;;;;5072932;28;20820;-92
2023/12/27 09:48:50;;;;;;;3.10;1.40;;;22.40;67.00;;;;;;5072874;28;20929;-90
2023/12/27 09:51:23;;;;;;;1.90;1.50;;;22.40;67.10;;;;;;5073769;28;20905;-88
2023/12/27 09:53:50;;;;;;;1.80;1.43;;;22.40;67.10;;;;;;5085952;28;20842;-87
2023/12/27 09:56:18;;;;;;;3.17;1.70;;;22.40;67.10;;;;;;5096893;28;20441;-87
2023/12/27 09:58:53;;;;;;;1.60;1.23;;;22.40;67.10;;;;;;5096665;28;20439;-87
2023/12/27 10:01:24;;;;;;;4.00;1.60;;;22.40;67.00;;;;;;5095381;28;20430;-87
2023/12/27 10:04:03;;;;;;;3.10;1.60;;;22.40;67.00;;;;;;5076019;28;20986;-87
2023/12/27 10:06:37;;;;;;;3.17;1.63;;;22.40;67.00;;;;;;5075873;28;20483;-87
2023/12/27 10:09:05;;;;;;;4.70;1.73;;;22.40;67.00;;;;;;5076128;28;20953;-88
2023/12/27 10:11:32;;;;;;;4.20;1.40;;;22.40;67.00;;;;;;5075836;28;20479;-87
2023/12/27 10:14:00;;;;;;;2.00;1.60;;;22.40;67.00;;;;;;5076268;28;20436;-89
2023/12/27 10:16:27;;;;;;;1.93;1.40;;;22.40;67.00;;;;;;5075834;28;20436;-87
2023/12/27 10:18:54;;;;;;;3.20;1.53;;;22.40;67.00;;;;;;5075676;28;20436;-87
2023/12/27 10:21:21;;;;;;;2.87;1.30;;;22.40;67.00;;;;;;5075447;28;20444;-87
2023/12/27 10:23:47;;;;;;;4.33;1.40;;;22.50;67.10;;;;;;5075528;28;20472;-88
2023/12/27 10:26:14;;;;;;;2.70;1.40;;;22.50;67.20;;;;;;5075978;28;20502;-88
2023/12/27 10:28:42;;;;;;;4.17;1.60;;;22.50;67.00;;;;;;5075321;28;20443;-89
2023/12/27 10:31:10;;;;;;;2.20;1.40;;;22.50;67.10;;;;;;5075610;28;20860;-87
2023/12/27 10:33:41;;;;;;;1.73;1.30;;;22.50;67.00;;;;;;5075616;28;20460;-88
2023/12/27 10:36:09;;;;;;;3.10;1.70;;;22.50;67.00;;;;;;5075966;28;20954;-87
2023/12/27 10:38:35;;;;;;;3.10;1.80;;;22.50;67.10;;;;;;5076060;28;20506;-88
2023/12/27 10:41:05;;;;;;;2.83;1.80;;;22.60;67.10;;;;;;5076431;28;20769;-87
2023/12/27 10:43:32;;;;;;;2.53;1.87;;;22.50;67.00;;;;;;5075586;28;20472;-87
2023/12/27 10:45:59;;;;;;;2.60;1.87;;;22.50;67.00;;;;;;5075357;28;20468;-88
2023/12/27 10:48:33;;;;;;;3.30;1.70;;;22.50;67.00;;;;;;5075909;28;20795;-89
2023/12/27 10:51:00;;;;;;;1.83;1.30;;;22.50;67.10;;;;;;5075642;28;20470;-87
2023/12/27 10:53:33;;;;;;;3.33;1.33;;;22.50;67.10;;;;;;5075648;28;20447;-88
2023/12/27 10:56:02;;;;;;;2.70;1.60;;;22.50;67.10;;;;;;5075282;28;20524;-87
2023/12/27 10:58:30;;;;;;;5.33;1.83;;;22.50;67.10;;;;;;5075559;28;20443;-89
2023/12/27 11:00:58;;;;;;;2.20;1.60;;;22.50;67.00;;;;;;5075771;28;20524;-87
2023/12/27 11:03:29;;;;;;;3.23;1.57;;;22.50;67.00;;;;;;5075148;28;20488;-87
2023/12/27 11:05:56;;;;;;;3.40;1.77;;;22.50;67.00;;;;;;5074851;28;21012;-87
2023/12/27 11:08:24;;;;;;;3.00;1.63;;;22.50;67.00;;;;;;5075270;28;20490;-87
2023/12/27 11:10:52;;;;;;;2.50;1.63;;;22.50;67.10;;;;;;5075339;28;20444;-87
2023/12/27 11:13:24;;;;;;;5.07;1.40;;;22.50;67.10;;;;;;5075097;28;20448;-88
2023/12/27 11:15:53;;;;;;;3.60;1.57;;;22.50;67.10;;;;;;5075295;28;20523;-87
2023/12/27 11:18:23;;;;;;;2.47;1.90;;;22.60;67.20;;;;;;5075290;28;20510;-89
2023/12/27 11:20:54;;;;;;;3.30;1.43;;;22.50;67.10;;;;;;5075614;28;20429;-87
2023/12/27 11:23:21;;;;;;;4.63;1.50;;;22.50;67.10;;;;;;5074755;28;20440;-87
2023/12/27 11:25:48;;;;;;;2.10;1.13;;;22.50;67.00;;;;;;5074747;28;20840;-87
2023/12/27 11:28:16;;;;;;;2.30;1.50;;;22.50;67.00;;;;;;5074797;28;20826;-87
2023/12/27 11:30:46;;;;;;;2.53;1.40;;;22.50;67.00;;;;;;5074619;28;20448;-87
2023/12/27 11:33:19;;;;;;;2.63;1.87;;;22.50;67.00;;;;;;5074873;28;20871;-87
2023/12/27 11:35:47;;;;;;;4.10;1.40;;;22.70;67.20;;;;;;5074566;28;20440;-87
2023/12/27 11:38:18;;;;;;;2.70;1.30;;;22.50;67.00;;;;;;5074837;28;20447;-88
2023/12/27 11:40:45;;;;;;;1.93;1.30;;;22.50;67.00;;;;;;5075280;28;20523;-89
2023/12/27 11:43:19;;;;;;;2.80;1.40;;;22.60;67.10;;;;;;5074557;28;20535;-87
2023/12/27 11:46:02;;;;;;;2.97;2.00;;;22.60;67.10;;;;;;5074629;28;20451;-87
2023/12/27 11:48:33;;;;;;;4.07;1.60;;;22.60;67.10;;;;;;5074358;28;20441;-87
2023/12/27 11:51:01;;;;;;;3.00;1.37;;;22.60;67.10;;;;;;5074255;28;20927;-87
2023/12/27 11:53:30;;;;;;;1.90;1.53;;;22.60;67.10;;;;;;5074319;28;20444;-87
2023/12/27 11:55:59;;;;;;;1.67;1.10;;;22.60;67.00;;;;;;5074304;28;20535;-87
2023/12/27 11:58:35;;;;;;;1.60;1.07;;;22.60;67.90;;;;;;5074085;28;21010;-87
2023/12/27 12:01:22;;;;;;;2.17;1.10;;;22.60;67.00;;;;;;5074232;28;20442;-87
2023/12/27 12:04:00;;;;;;;2.47;1.33;;;22.60;67.00;;;;;;5074299;28;20788;-87
2023/12/27 12:06:42;;;;;;;2.07;1.33;;;22.60;67.00;;;;;;5074172;28;20468;-88
2023/12/27 12:09:11;;;;;;;1.90;1.30;;;22.50;66.90;;;;;;5074148;28;20532;-87
2023/12/27 12:11:38;;;;;;;3.77;1.40;;;22.60;67.00;;;;;;5074251;28;20536;-89
2023/12/27 12:14:05;;;;;;;1.80;1.30;;;22.60;67.00;;;;;;5073455;28;20527;-87
2023/12/27 12:16:33;;;;;;;4.37;1.20;;;22.60;67.00;;;;;;5073883;28;20531;-88
2023/12/27 12:19:03;;;;;;;1.73;1.00;;;22.60;66.90;;;;;;5073811;28;20444;-87
2023/12/27 12:21:31;;;;;;;1.50;1.20;;;22.60;66.90;;;;;;5074085;28;20523;-89
2023/12/27 12:23:58;;;;;;;1.50;1.10;;;22.60;66.90;;;;;;5073567;28;20526;-87
2023/12/27 12:26:26;;;;;;;2.70;1.30;;;22.60;66.90;;;;;;5073564;28;20941;-89
2023/12/27 12:28:58;;;;;;;1.87;1.20;;;22.60;66.80;;;;;;5084434;28;20447;-88
2023/12/27 12:31:24;;;;;;;3.03;1.40;;;22.60;66.90;;;;;;5076211;28;20448;-88
2023/12/27 12:33:51;;;;;;;2.03;1.10;;;22.60;66.70;;;;;;5083335;28;20554;-88
2023/12/27 12:36:19;;;;;;;1.50;1.10;;;22.60;66.80;;;;;;5093750;28;20502;-88
2023/12/27 12:38:46;;;;;;;1.67;1.10;;;22.60;66.80;;;;;;5093736;28;20443;-87
2023/12/27 12:41:13;;;;;;;4.80;1.20;;;22.60;66.80;;;;;;5080796;28;20519;-87
2023/12/27 12:43:43;;;;;;;1.30;1.00;;;22.60;66.80;;;;;;5073281;28;20472;-88
2023/12/27 12:46:12;;;;;;;1.70;0.93;;;22.60;66.80;;;;;;5074204;28;20437;-89
2023/12/27 12:48:40;;;;;;;2.77;1.33;;;22.60;66.80;;;;;;5073567;28;20546;-88
2023/12/27 12:51:11;;;;;;;1.53;1.17;;;22.60;66.80;;;;;;5073617;28;20532;-87